AIRPORT ID: 9S5

DATE: 2023-11-29 ZULU TIME: 12.15 LOCAL TIME: 5.15


METAR K9S5 291215Z AUTO 00000KT 10SM M13/M16 A2996

ALTIMETER: A2996 Q1015

DENSITY ALT: 1900 Ft

WIND DIRECT: 200

WIND SPEED: 0 Gust

WIND CONDITIONS:

VISIBILTY: 10SM 9999M

TEMPERATURE: 9 F -13 C

DEW POINT: 3 F -16 C

HUMID: 78%

LCL: 1,000-3,000 feet

RADIO CHECK: 0

ADVISARIES: 0

GREETINGS: 0

CONVERSATIONS: 0